createdAt,value
2023-01-20T00:01:48.609Z,96799.59
2023-01-20T00:04:20.637Z,96802.06
2023-01-20T00:06:49.802Z,96805.28
2023-01-20T00:09:19.551Z,96799.72
2023-01-20T00:11:48.458Z,96785.47
2023-01-20T00:14:17.432Z,96802.56
2023-01-20T00:16:46.259Z,96809.34
2023-01-20T00:19:16.032Z,96809.47
2023-01-20T00:21:45.093Z,96802.16
2023-01-20T00:24:13.895Z,96805.31
2023-01-20T00:26:42.952Z,96808.38
2023-01-20T00:29:11.987Z,96805.31
2023-01-20T00:31:42.084Z,96805.16
2023-01-20T00:34:11.779Z,96807.00
2023-01-20T00:36:40.598Z,96802.31
2023-01-20T00:39:09.448Z,96820.88
2023-01-20T00:41:38.424Z,96829.66
2023-01-20T00:44:07.445Z,96833.50
2023-01-20T00:46:36.888Z,96829.19
2023-01-20T00:49:05.776Z,96831.81
2023-01-20T00:51:34.607Z,96838.06
2023-01-20T00:54:03.570Z,96831.28
2023-01-20T00:56:32.913Z,96839.97
2023-01-20T00:59:01.705Z,96834.81
2023-01-20T01:01:31.433Z,96843.72
2023-01-20T01:04:01.257Z,96845.44
2023-01-20T01:06:30.299Z,96843.50
2023-01-20T01:08:59.235Z,96844.56
2023-01-20T01:11:28.225Z,96841.13
2023-01-20T01:13:58.117Z,96848.09
2023-01-20T01:16:27.053Z,96845.59
2023-01-20T01:18:56.507Z,96836.75
2023-01-20T01:21:25.445Z,96839.09
2023-01-20T01:23:54.515Z,96849.13
2023-01-20T01:26:23.534Z,96854.28
2023-01-20T01:28:53.193Z,96852.34
2023-01-20T01:31:23.254Z,96855.69
2023-01-20T01:33:53.056Z,96852.22
2023-01-20T01:36:22.156Z,96856.50
2023-01-20T01:38:57.481Z,96854.28
2023-01-20T01:41:27.903Z,96850.22
2023-01-20T01:44:07.667Z,96856.38
2023-01-20T01:46:37.620Z,96865.19
2023-01-20T01:49:35.689Z,96872.59
2023-01-20T01:52:11.999Z,96870.97
2023-01-20T01:54:46.162Z,96879.16
2023-01-20T01:57:15.040Z,96874.72
2023-01-20T01:59:44.833Z,96875.09
2023-01-20T02:02:15.649Z,96879.34
2023-01-20T02:04:49.267Z,96881.56
2023-01-20T02:07:22.338Z,96892.91
2023-01-20T02:09:51.215Z,96897.56
2023-01-20T02:12:23.188Z,96896.03
2023-01-20T02:14:57.539Z,96893.72
2023-01-20T02:17:49.940Z,96901.22
2023-01-20T02:20:28.711Z,96901.72
2023-01-20T02:23:34.751Z,96906.78
2023-01-20T02:26:39.489Z,96903.44
2023-01-20T02:29:26.879Z,96906.22
2023-01-20T02:31:58.298Z,96912.81
2023-01-20T02:35:03.808Z,96912.59
2023-01-20T02:38:03.596Z,96908.63
2023-01-20T02:40:38.510Z,96907.47
2023-01-20T02:43:32.382Z,96903.28
2023-01-20T02:46:09.275Z,96908.63
2023-01-20T02:48:45.125Z,96914.66
2023-01-20T02:51:41.053Z,96919.66
2023-01-20T02:54:14.578Z,96901.13
2023-01-20T02:56:44.238Z,96922.19
2023-01-20T02:59:18.343Z,96920.22
2023-01-20T03:02:06.228Z,96918.19
2023-01-20T03:04:41.920Z,96921.28
2023-01-20T03:07:13.525Z,96915.47
2023-01-20T03:09:48.274Z,96929.31
2023-01-20T03:12:39.512Z,96899.00
2023-01-20T03:15:09.673Z,96922.28
2023-01-20T03:17:39.040Z,96926.63
2023-01-20T03:20:08.708Z,96925.59
2023-01-20T03:22:37.885Z,96934.84
2023-01-20T03:25:09.212Z,96928.25
2023-01-20T03:27:39.058Z,96936.78
2023-01-20T03:30:14.593Z,96945.22
2023-01-20T03:32:46.605Z,96937.53
2023-01-20T03:35:17.612Z,96943.47
2023-01-20T03:37:46.917Z,96934.94
2023-01-20T03:40:17.404Z,96944.47
2023-01-20T03:43:11.752Z,96944.09
2023-01-20T03:45:57.856Z,96938.34
2023-01-20T03:48:39.473Z,96945.25
2023-01-20T03:51:29.886Z,96949.06
2023-01-20T03:54:07.336Z,96953.25
2023-01-20T03:56:47.743Z,96949.91
2023-01-20T03:59:19.701Z,96953.47
2023-01-20T04:01:51.286Z,96946.44
2023-01-20T04:04:21.014Z,96944.34
2023-01-20T04:06:52.493Z,96937.72
2023-01-20T04:09:30.094Z,96938.38
2023-01-20T04:12:00.253Z,96939.66
2023-01-20T04:14:29.103Z,96930.06
2023-01-20T04:16:59.884Z,96952.69
2023-01-20T04:19:28.858Z,96954.41
2023-01-20T04:22:23.519Z,96951.28
2023-01-20T04:25:02.255Z,96946.28
2023-01-20T04:27:32.686Z,96953.31
2023-01-20T04:30:02.511Z,96950.78
2023-01-20T04:32:32.098Z,96961.97
2023-01-20T04:35:00.969Z,96948.22
2023-01-20T04:37:32.005Z,96953.75
2023-01-20T04:40:00.843Z,96963.06
2023-01-20T04:42:31.469Z,96960.06
2023-01-20T04:45:00.467Z,96964.72
2023-01-20T04:47:34.257Z,96967.50
2023-01-20T04:50:04.400Z,96966.19
2023-01-20T04:52:33.895Z,96976.00
2023-01-20T04:55:03.378Z,96977.94
2023-01-20T04:57:32.428Z,96982.31
2023-01-20T05:00:01.991Z,96983.84
2023-01-20T05:02:32.949Z,96982.06
2023-01-20T05:05:02.181Z,96984.78
2023-01-20T05:07:31.744Z,96983.91
2023-01-20T05:10:00.605Z,96991.47
2023-01-20T05:12:29.525Z,96996.88
2023-01-20T05:14:58.440Z,96989.78
2023-01-20T05:17:27.253Z,96995.47
2023-01-20T05:19:56.160Z,96999.66
2023-01-20T05:22:24.988Z,97009.16
2023-01-20T05:24:54.315Z,97010.63
2023-01-20T05:27:23.670Z,97015.16
2023-01-20T05:29:52.495Z,97012.50
2023-01-20T05:32:21.364Z,97017.69
2023-01-20T05:34:50.281Z,97021.97
2023-01-20T05:37:19.598Z,97021.75
2023-01-20T05:39:48.929Z,97027.16
2023-01-20T05:42:18.190Z,97024.94
2023-01-20T05:44:47.218Z,97025.19
2023-01-20T05:47:16.213Z,97022.19
2023-01-20T05:49:45.271Z,97030.75
2023-01-20T05:52:14.031Z,97028.53
2023-01-20T05:54:42.958Z,97033.06
2023-01-20T05:57:11.902Z,97047.59
2023-01-20T05:59:40.768Z,97050.47
2023-01-20T06:02:13.800Z,97056.44
2023-01-20T06:04:43.559Z,97051.25
2023-01-20T06:07:12.628Z,97059.09
2023-01-20T06:09:42.000Z,97046.78
2023-01-20T06:12:10.894Z,97059.59
2023-01-20T06:14:39.752Z,97044.44
2023-01-20T06:17:08.634Z,97046.50
2023-01-20T06:19:39.179Z,97057.50
2023-01-20T06:22:15.789Z,97063.53
2023-01-20T06:24:44.667Z,97056.06
2023-01-20T06:27:14.105Z,97060.31
2023-01-20T06:29:44.179Z,97059.53
2023-01-20T06:32:13.105Z,97059.88
2023-01-20T06:34:42.118Z,97065.59
2023-01-20T06:37:11.854Z,97070.72
2023-01-20T06:39:43.462Z,97071.91
2023-01-20T06:42:12.282Z,97060.13
2023-01-20T06:44:41.099Z,97072.63
2023-01-20T06:47:10.591Z,97079.53
2023-01-20T06:49:39.649Z,97071.53
2023-01-20T06:52:09.106Z,97080.34
2023-01-20T06:54:39.095Z,97078.41
2023-01-20T06:57:07.933Z,97074.75
2023-01-20T06:59:36.895Z,97084.75
2023-01-20T07:02:07.723Z,97070.50
2023-01-20T07:04:36.859Z,97084.63
2023-01-20T07:07:05.782Z,97097.84
2023-01-20T07:09:34.603Z,97093.97
2023-01-20T07:12:03.401Z,97101.34
2023-01-20T07:14:33.081Z,97098.09
2023-01-20T07:17:01.935Z,97106.59
2023-01-20T07:19:32.861Z,97109.72
2023-01-20T07:22:01.756Z,97115.53
2023-01-20T07:24:30.599Z,97109.78
2023-01-20T07:26:59.634Z,97113.38
2023-01-20T07:29:28.856Z,97126.13
2023-01-20T07:31:58.178Z,97127.88
2023-01-20T07:34:27.136Z,97130.56
2023-01-20T07:36:56.153Z,97127.56
2023-01-20T07:39:25.040Z,97137.72
2023-01-20T07:41:53.939Z,97137.47
2023-01-20T07:44:22.800Z,97138.41
2023-01-20T07:46:52.301Z,97147.81
2023-01-20T07:49:21.169Z,97152.44
2023-01-20T07:51:51.097Z,97151.47
2023-01-20T07:54:19.915Z,97159.78
2023-01-20T07:56:49.069Z,97171.44
2023-01-20T07:59:18.422Z,97170.88
2023-01-20T08:01:48.504Z,97179.94
2023-01-20T08:04:18.618Z,97181.16
2023-01-20T08:06:47.645Z,97183.66
2023-01-20T08:09:16.716Z,97196.91
2023-01-20T08:11:45.622Z,97190.94
2023-01-20T08:14:14.460Z,97193.69
2023-01-20T08:16:43.396Z,97197.66
2023-01-20T08:19:12.278Z,97200.63
2023-01-20T08:21:41.270Z,97197.69
2023-01-20T08:24:11.303Z,97196.38
2023-01-20T08:26:40.218Z,97193.16
2023-01-20T08:29:10.660Z,97200.94
2023-01-20T08:31:40.421Z,97195.94
2023-01-20T08:34:10.239Z,97198.47
2023-01-20T08:36:42.223Z,97203.22
2023-01-20T08:39:14.518Z,97203.34
2023-01-20T08:41:45.267Z,97195.50
2023-01-20T08:44:15.241Z,97202.53
2023-01-20T08:46:46.357Z,97216.00
2023-01-20T08:49:17.678Z,97209.97
2023-01-20T08:51:46.842Z,97214.00
2023-01-20T08:54:15.980Z,97222.38
2023-01-20T08:56:44.994Z,97220.81
2023-01-20T08:59:17.470Z,97219.25
2023-01-20T09:01:47.485Z,97233.44
2023-01-20T09:04:16.651Z,97232.38
2023-01-20T09:06:49.247Z,97229.03
2023-01-20T09:09:20.056Z,97239.34
2023-01-20T09:11:52.345Z,97241.91
2023-01-20T09:14:23.513Z,97249.22
2023-01-20T09:16:52.733Z,97245.69
2023-01-20T09:19:22.346Z,97255.44
2023-01-20T09:21:51.218Z,97264.53
2023-01-20T09:24:20.102Z,97263.34
2023-01-20T09:26:50.304Z,97266.56
2023-01-20T09:29:21.862Z,97268.09
2023-01-20T09:31:52.255Z,97275.75
2023-01-20T09:34:25.115Z,97281.03
2023-01-20T09:36:56.562Z,97277.47
2023-01-20T09:39:44.737Z,97278.97
2023-01-20T09:42:41.511Z,97289.69
2023-01-20T09:45:34.182Z,97292.50
2023-01-20T09:48:56.946Z,97296.28
2023-01-20T09:51:53.515Z,97289.84
2023-01-20T09:54:29.739Z,97297.88
2023-01-20T09:57:01.134Z,97309.34
2023-01-20T09:59:41.893Z,97302.91
2023-01-20T10:02:30.999Z,97307.97
2023-01-20T10:05:14.641Z,97299.59
2023-01-20T10:08:07.818Z,97310.81
2023-01-20T10:11:12.501Z,97304.03
2023-01-20T10:14:00.942Z,97313.44
2023-01-20T10:16:41.866Z,97321.25
2023-01-20T10:19:38.694Z,97328.19
2023-01-20T10:23:05.698Z,97326.09
2023-01-20T10:25:39.030Z,97321.44
2023-01-20T10:28:26.395Z,97323.28
2023-01-20T10:30:59.401Z,97326.91
2023-01-20T10:33:38.309Z,97315.56
2023-01-20T10:36:15.836Z,97329.56
2023-01-20T10:38:56.571Z,97319.56
2023-01-20T10:41:43.289Z,97341.72
2023-01-20T10:44:16.379Z,97340.84
2023-01-20T10:47:13.455Z,97349.66
2023-01-20T10:50:01.015Z,97356.44
2023-01-20T10:52:40.398Z,97362.53
2023-01-20T10:55:27.119Z,97361.91
2023-01-20T10:58:07.172Z,97370.38
2023-01-20T11:00:36.844Z,97370.50
2023-01-20T11:03:11.591Z,97375.72
2023-01-20T11:05:42.789Z,97379.13
2023-01-20T11:08:24.103Z,97380.53
2023-01-20T11:10:57.438Z,97374.16
2023-01-20T11:13:26.529Z,97380.66
2023-01-20T11:15:59.826Z,97383.28
2023-01-20T11:18:31.657Z,97386.66
2023-01-20T11:21:13.069Z,97390.44
2023-01-20T11:24:01.473Z,97393.09
2023-01-20T11:26:32.387Z,97392.63
2023-01-20T11:29:02.500Z,97389.16
2023-01-20T11:31:42.489Z,97410.97
2023-01-20T11:34:23.434Z,97413.44
2023-01-20T11:37:11.605Z,97413.66
2023-01-20T11:39:51.330Z,97413.25
2023-01-20T11:42:28.640Z,97424.19
2023-01-20T11:45:20.862Z,97408.00
2023-01-20T11:48:06.016Z,97422.63
2023-01-20T11:51:01.950Z,97427.09
2023-01-20T11:53:32.889Z,97429.75
2023-01-20T11:56:06.525Z,97423.56
2023-01-20T11:58:58.192Z,97436.16
2023-01-20T12:01:30.726Z,97423.97
2023-01-20T12:04:30.709Z,97443.16
2023-01-20T12:07:08.185Z,97442.41
2023-01-20T12:09:47.667Z,97437.03
2023-01-20T12:12:37.190Z,97449.88
2023-01-20T12:15:26.102Z,97453.56
2023-01-20T12:18:04.924Z,97443.19
2023-01-20T12:20:55.468Z,97462.34
2023-01-20T12:23:46.375Z,97468.25
2023-01-20T12:26:17.850Z,97465.13
2023-01-20T12:28:48.341Z,97472.06
2023-01-20T12:31:24.553Z,97470.34
2023-01-20T12:34:13.295Z,97475.38
2023-01-20T12:37:11.242Z,97475.44
2023-01-20T12:39:58.499Z,97473.56
2023-01-20T12:42:42.248Z,97488.00
2023-01-20T12:45:23.361Z,97486.44
2023-01-20T12:47:58.995Z,97485.41
2023-01-20T12:50:53.443Z,97485.34
2023-01-20T12:53:50.005Z,97489.88
2023-01-20T12:56:41.091Z,97485.56
2023-01-20T12:59:28.409Z,97502.38
2023-01-20T13:02:22.295Z,97498.34
2023-01-20T13:05:14.116Z,97501.16
2023-01-20T13:08:12.445Z,97506.16
2023-01-20T13:10:52.313Z,97507.91
2023-01-20T13:13:28.199Z,97504.72
2023-01-20T13:16:17.846Z,97508.34
2023-01-20T13:19:12.691Z,97500.47
2023-01-20T13:21:43.193Z,97498.50
2023-01-20T13:24:29.909Z,97499.47
2023-01-20T13:27:01.161Z,97505.31
2023-01-20T13:29:57.993Z,97508.84
2023-01-20T13:32:33.858Z,97507.19
2023-01-20T13:35:17.489Z,97508.13
2023-01-20T13:37:54.017Z,97498.38
2023-01-20T13:40:38.245Z,97501.47
2023-01-20T13:43:28.539Z,97504.56
2023-01-20T13:46:06.804Z,97509.34
2023-01-20T13:48:38.075Z,97498.78
2023-01-20T13:51:16.275Z,97509.41
2023-01-20T13:53:45.225Z,97500.53
2023-01-20T13:56:33.471Z,97512.03
2023-01-20T13:59:02.380Z,97516.38
2023-01-20T14:01:32.319Z,97521.88
2023-01-20T14:04:07.387Z,97505.69
2023-01-20T14:06:36.772Z,97518.81
2023-01-20T14:09:19.605Z,97518.34
2023-01-20T14:11:56.541Z,97522.06
2023-01-20T14:14:26.894Z,97527.84
2023-01-20T14:16:57.269Z,97525.22
2023-01-20T14:19:35.681Z,97523.50
2023-01-20T14:22:20.001Z,97515.31
2023-01-20T14:24:49.812Z,97523.75
2023-01-20T14:27:24.454Z,97522.97
2023-01-20T14:29:54.207Z,97521.34
2023-01-20T14:32:32.332Z,97521.47
2023-01-20T14:35:02.764Z,97523.47
2023-01-20T14:37:39.411Z,97520.63
2023-01-20T14:40:10.972Z,97540.31
2023-01-20T14:42:41.514Z,97526.97
2023-01-20T14:45:22.636Z,97533.69
2023-01-20T14:47:51.944Z,97529.59
2023-01-20T14:50:22.141Z,97540.63
2023-01-20T14:52:51.149Z,97529.00
2023-01-20T14:55:44.173Z,97531.69
2023-01-20T14:58:18.906Z,97531.72
2023-01-20T15:00:49.669Z,97545.03
2023-01-20T15:03:26.955Z,97541.88
2023-01-20T15:06:21.961Z,97551.19
2023-01-20T15:09:05.582Z,97550.19
2023-01-20T15:11:36.212Z,97545.81
2023-01-20T15:14:06.269Z,97551.00
2023-01-20T15:16:43.754Z,97549.59
2023-01-20T15:19:23.326Z,97544.78
2023-01-20T15:21:56.922Z,97549.94
2023-01-20T15:24:31.326Z,97552.63
2023-01-20T15:27:02.414Z,97552.88
2023-01-20T15:29:37.188Z,97548.91
2023-01-20T15:32:13.249Z,97551.69
2023-01-20T15:34:42.825Z,97546.09
2023-01-20T15:37:21.400Z,97536.66
2023-01-20T15:39:51.094Z,97549.25
2023-01-20T15:42:24.507Z,97553.00
2023-01-20T15:44:53.562Z,97560.09
2023-01-20T15:47:31.978Z,97565.56
2023-01-20T15:50:01.050Z,97555.31
2023-01-20T15:52:32.001Z,97569.66
2023-01-20T15:55:00.996Z,97567.28
2023-01-20T15:57:30.084Z,97565.84
2023-01-20T15:59:59.020Z,97561.69
2023-01-20T16:02:28.863Z,97581.50
2023-01-20T16:04:57.915Z,97582.53
2023-01-20T16:07:29.319Z,97582.31
2023-01-20T16:09:58.173Z,97578.91
2023-01-20T16:12:27.013Z,97572.28
2023-01-20T16:14:55.957Z,97578.13
2023-01-20T16:17:27.071Z,97575.59
2023-01-20T16:19:55.872Z,97579.47
2023-01-20T16:22:24.829Z,97583.47
2023-01-20T16:24:53.822Z,97574.56
2023-01-20T16:27:23.676Z,97585.03
2023-01-20T16:29:52.621Z,97569.59
2023-01-20T16:32:22.572Z,97587.88
2023-01-20T16:34:51.603Z,97594.16
2023-01-20T16:37:20.726Z,97578.81
2023-01-20T16:39:49.558Z,97582.22
2023-01-20T16:42:18.503Z,97590.03
2023-01-20T16:44:47.354Z,97577.97
2023-01-20T16:47:16.218Z,97581.38
2023-01-20T16:49:45.140Z,97588.78
2023-01-20T16:52:14.553Z,97594.59
2023-01-20T16:54:43.405Z,97599.50
2023-01-20T16:57:12.237Z,97604.59
2023-01-20T16:59:41.171Z,97603.75
2023-01-20T17:02:12.093Z,97607.84
2023-01-20T17:04:41.357Z,97609.25
2023-01-20T17:07:10.163Z,97604.34
2023-01-20T17:09:38.952Z,97612.66
2023-01-20T17:12:08.156Z,97619.13
2023-01-20T17:14:37.352Z,97619.13
2023-01-20T17:17:06.267Z,97615.00
2023-01-20T17:19:35.297Z,97619.81
2023-01-20T17:22:04.303Z,97618.19
2023-01-20T17:24:33.717Z,97620.78
2023-01-20T17:27:02.590Z,97629.34
2023-01-20T17:29:31.494Z,97642.72
2023-01-20T17:32:00.494Z,97636.38
2023-01-20T17:34:29.472Z,97638.97
2023-01-20T17:36:58.492Z,97642.63
2023-01-20T17:39:27.385Z,97634.56
2023-01-20T17:41:56.199Z,97642.22
2023-01-20T17:44:25.282Z,97647.31
2023-01-20T17:46:54.247Z,97652.44
2023-01-20T17:49:23.496Z,97655.16
2023-01-20T17:51:52.294Z,97646.28
2023-01-20T17:54:21.133Z,97652.22
2023-01-20T17:56:50.023Z,97646.56
2023-01-20T17:59:18.869Z,97653.25
2023-01-20T18:01:52.905Z,97664.19
2023-01-20T18:04:22.039Z,97640.59
2023-01-20T18:06:51.004Z,97666.00
2023-01-20T18:09:19.893Z,97659.50
2023-01-20T18:11:50.127Z,97667.88
2023-01-20T18:14:19.213Z,97666.47
2023-01-20T18:16:48.320Z,97672.19
2023-01-20T18:19:17.211Z,97668.00
2023-01-20T18:21:46.310Z,97663.22
2023-01-20T18:24:15.418Z,97670.72
2023-01-20T18:26:44.437Z,97675.03
2023-01-20T18:29:17.835Z,97681.72
2023-01-20T18:31:47.124Z,97677.69
2023-01-20T18:34:19.114Z,97684.56
2023-01-20T18:36:49.135Z,97683.03
2023-01-20T18:39:23.178Z,97682.13
2023-01-20T18:41:52.964Z,97682.25
2023-01-20T18:44:23.897Z,97685.81
2023-01-20T18:46:52.821Z,97690.97
2023-01-20T18:49:21.809Z,97691.13
2023-01-20T18:51:50.829Z,97688.66
2023-01-20T18:54:22.920Z,97694.25
2023-01-20T18:56:51.715Z,97687.53
2023-01-20T18:59:20.543Z,97695.56
2023-01-20T19:01:51.239Z,97697.94
2023-01-20T19:04:20.325Z,97697.75
2023-01-20T19:06:49.083Z,97706.00
2023-01-20T19:09:18.079Z,97714.50
2023-01-20T19:11:46.944Z,97722.91
2023-01-20T19:14:16.160Z,97718.09
2023-01-20T19:16:49.766Z,97712.13
2023-01-20T19:19:19.659Z,97710.97
2023-01-20T19:21:51.830Z,97718.22
2023-01-20T19:24:22.306Z,97682.66
2023-01-20T19:26:51.275Z,97705.59
2023-01-20T19:29:20.342Z,97709.63
2023-01-20T19:31:49.724Z,97709.78
2023-01-20T19:34:18.547Z,97700.91
2023-01-20T19:36:47.355Z,97701.88
2023-01-20T19:39:16.763Z,97699.53
2023-01-20T19:41:45.555Z,97708.16
2023-01-20T19:44:14.533Z,97705.13
2023-01-20T19:46:43.450Z,97719.41
2023-01-20T19:49:30.901Z,97713.63
2023-01-20T19:52:00.556Z,97716.84
2023-01-20T19:54:31.646Z,97721.84
2023-01-20T19:57:01.140Z,97716.00
2023-01-20T19:59:29.948Z,97715.25
2023-01-20T20:01:59.794Z,97721.16
2023-01-20T20:04:28.823Z,97718.97
2023-01-20T20:06:57.907Z,97726.47
2023-01-20T20:09:27.496Z,97726.50
2023-01-20T20:11:56.709Z,97731.72
2023-01-20T20:14:27.841Z,97739.19
2023-01-20T20:16:56.680Z,97739.16
2023-01-20T20:19:25.618Z,97744.19
2023-01-20T20:21:55.781Z,97742.44
2023-01-20T20:24:24.780Z,97714.50
2023-01-20T20:26:53.611Z,97739.81
2023-01-20T20:29:22.423Z,97726.38
2023-01-20T20:31:51.409Z,97744.22
2023-01-20T20:34:20.600Z,97745.66
2023-01-20T20:36:49.455Z,97753.63
2023-01-20T20:39:19.485Z,97751.81
2023-01-20T20:41:48.352Z,97759.88
2023-01-20T20:44:17.516Z,97749.78
2023-01-20T20:46:46.367Z,97758.16
2023-01-20T20:49:19.579Z,97757.53
2023-01-20T20:51:48.460Z,97757.03
2023-01-20T20:54:17.698Z,97761.31
2023-01-20T20:56:46.712Z,97768.03
2023-01-20T20:59:15.981Z,97760.53
2023-01-20T21:01:45.460Z,97763.13
2023-01-20T21:04:14.512Z,97773.94
2023-01-20T21:06:43.328Z,97772.38
2023-01-20T21:09:12.173Z,97757.63
2023-01-20T21:11:43.132Z,97774.31
2023-01-20T21:14:12.367Z,97777.84
2023-01-20T21:16:41.396Z,97781.28
2023-01-20T21:19:10.339Z,97787.19
2023-01-20T21:21:39.312Z,97793.78
2023-01-20T21:24:10.735Z,97796.13
2023-01-20T21:26:39.630Z,97788.38
2023-01-20T21:29:08.627Z,97793.16
2023-01-20T21:31:37.786Z,97788.34
2023-01-20T21:34:07.485Z,97775.28
2023-01-20T21:36:42.021Z,97787.84
2023-01-20T21:39:16.418Z,97795.44
2023-01-20T21:41:45.284Z,97798.81
2023-01-20T21:44:31.388Z,97790.63
2023-01-20T21:47:02.941Z,97802.31
2023-01-20T21:49:50.549Z,97803.25
2023-01-20T21:52:43.006Z,97806.72
2023-01-20T21:55:19.996Z,97809.50
2023-01-20T21:57:51.273Z,97808.84
2023-01-20T22:00:21.879Z,97817.31
2023-01-20T22:02:50.941Z,97818.25
2023-01-20T22:05:19.777Z,97823.28
2023-01-20T22:07:49.015Z,97824.22
2023-01-20T22:10:18.286Z,97829.31
2023-01-20T22:12:47.364Z,97828.53
2023-01-20T22:15:16.452Z,97830.31
2023-01-20T22:17:45.908Z,97835.38
2023-01-20T22:20:15.208Z,97833.88
2023-01-20T22:22:44.193Z,97847.03
2023-01-20T22:25:13.086Z,97855.44
2023-01-20T22:27:41.938Z,97848.88
2023-01-20T22:30:11.474Z,97853.13
2023-01-20T22:32:40.321Z,97836.72
2023-01-20T22:35:09.542Z,97858.00
2023-01-20T22:37:38.388Z,97867.00
2023-01-20T22:40:07.500Z,97874.38
2023-01-20T22:42:36.211Z,97881.84
2023-01-20T22:45:05.773Z,97882.69
2023-01-20T22:47:34.727Z,97875.34
2023-01-20T22:50:03.694Z,97875.28
2023-01-20T22:52:32.666Z,97877.75
2023-01-20T22:55:01.555Z,97883.69
2023-01-20T22:57:32.084Z,97896.09
2023-01-20T23:00:01.120Z,97891.03
2023-01-20T23:02:32.950Z,97883.50
2023-01-20T23:05:02.052Z,97893.56
2023-01-20T23:07:32.088Z,97899.44
2023-01-20T23:10:00.862Z,97886.31
2023-01-20T23:12:29.721Z,97890.50
2023-01-20T23:15:01.639Z,97901.34
2023-01-20T23:17:32.272Z,97898.06
2023-01-20T23:20:01.085Z,97897.09
2023-01-20T23:22:31.787Z,97893.72
2023-01-20T23:25:00.685Z,97886.91
2023-01-20T23:27:31.340Z,97885.94
2023-01-20T23:30:00.192Z,97899.16
2023-01-20T23:32:28.995Z,97895.09
2023-01-20T23:34:57.774Z,97905.06
2023-01-20T23:37:28.050Z,97907.50
2023-01-20T23:39:56.871Z,97911.56
2023-01-20T23:42:25.627Z,97915.75
2023-01-20T23:44:54.906Z,97929.09
2023-01-20T23:47:23.926Z,97923.38
2023-01-20T23:49:52.835Z,97925.06
2023-01-20T23:52:22.276Z,97912.75
2023-01-20T23:54:51.212Z,97915.31
2023-01-20T23:57:20.771Z,97928.56
2023-01-20T23:59:49.562Z,97921.16
